KMFD

Mansfield Lahm Regional Airport

Mansfield, Ohio, USA
METAR KMFD 172352Z 28006KT 10SM CLR 07/M01 A3029 RMK AO2 SLP264 T00671011 10128 20067 53034
Observed Flight Rules
Oct-17 @ 23:52 UTC (an hour ago) Visual Flight Rules
Wind Visibility Clouds
280° at 6 knots 10 miles
  • Clear skies
Temperatures Readings
Current 7°C / 45°F
Dewpoint -1°C / 30°F
Humidity 57%
Altimeter 30.29" Hg
Pressure 1026.4 hPa
Elevation 395
METAR KMFD 172352Z 28006KT 10SM CLR 07/M01 A3029 RMK AO2 SLP264 T00671011 10128 20067 53034
Observed Flight Rules
Oct-17 @ 23:52 UTC
(an hour ago)
VFR
Wind Visibility
280° at 6 knots 10 miles
Clouds
  • Clear skies
Temperature Dewpoint
7°C / 45°F -1°C / 30°F
Humidity Altimeter Pressure
57% 30.29" Hg 1026.4 hPa